createdAt,value
2019-01-20T00:00:47.833Z,14.73
2019-01-20T00:03:17.758Z,13.83
2019-01-20T00:05:47.122Z,13.13
2019-01-20T00:08:16.500Z,14.15
2019-01-20T00:10:45.881Z,13.37
2019-01-20T00:13:15.247Z,12.78
2019-01-20T00:15:46.291Z,11.83
2019-01-20T00:18:15.666Z,13.70
2019-01-20T00:20:45.042Z,13.03
2019-01-20T00:23:14.438Z,12.20
2019-01-20T00:25:43.814Z,12.10
2019-01-20T00:28:13.184Z,11.80
2019-01-20T00:30:42.587Z,12.43
2019-01-20T00:33:11.947Z,12.40
2019-01-20T00:35:41.320Z,12.17
2019-01-20T00:38:10.712Z,11.55
2019-01-20T00:40:40.068Z,11.17
2019-01-20T00:43:09.444Z,11.80
2019-01-20T00:45:39.161Z,12.07
2019-01-20T00:48:08.538Z,12.73
2019-01-20T00:50:37.903Z,12.60
2019-01-20T00:53:07.363Z,12.18
2019-01-20T00:55:36.724Z,12.43
2019-01-20T00:58:06.159Z,11.55
2019-01-20T01:00:35.659Z,11.73
2019-01-20T01:03:05.168Z,12.65
2019-01-20T01:05:34.905Z,12.73
2019-01-20T01:08:04.743Z,12.50
2019-01-20T01:10:34.111Z,13.48
2019-01-20T01:13:04.638Z,12.90
2019-01-20T01:15:34.183Z,12.00
2019-01-20T01:18:03.637Z,11.78
2019-01-20T01:20:33.017Z,12.75
2019-01-20T01:23:02.400Z,11.95
2019-01-20T01:25:31.773Z,11.40
2019-01-20T01:28:01.135Z,11.93
2019-01-20T01:30:30.530Z,12.33
2019-01-20T01:32:59.956Z,11.60
2019-01-20T01:35:29.327Z,12.30
2019-01-20T01:37:59.842Z,12.03
2019-01-20T01:40:29.207Z,13.40
2019-01-20T01:42:58.582Z,12.67
2019-01-20T01:45:27.997Z,12.93
2019-01-20T01:47:57.354Z,12.90
2019-01-20T01:50:26.754Z,12.20
2019-01-20T01:52:56.416Z,12.73
2019-01-20T02:14:46.649Z,20.27
2019-01-20T02:17:16.984Z,24.00
2019-01-20T02:19:46.334Z,23.27
2019-01-20T02:22:15.719Z,24.00
2019-01-20T02:24:45.072Z,20.45
2019-01-20T02:27:14.495Z,18.57
2019-01-20T02:29:43.876Z,20.70
2019-01-20T02:32:13.229Z,20.48
2019-01-20T02:34:42.600Z,18.77
2019-01-20T02:37:12.377Z,21.23
2019-01-20T02:39:41.738Z,19.90
2019-01-20T02:42:11.108Z,17.23
2019-01-20T02:44:40.485Z,16.50
2019-01-20T02:47:09.837Z,17.07
2019-01-20T02:49:39.234Z,16.03
2019-01-20T02:52:08.577Z,16.30
2019-01-20T02:54:37.941Z,15.67
2019-01-20T02:57:07.314Z,14.50
2019-01-20T02:59:37.104Z,14.77
2019-01-20T03:02:06.631Z,14.40
2019-01-20T03:04:35.977Z,13.37
2019-01-20T03:07:05.558Z,14.20
2019-01-20T03:09:34.920Z,15.53
2019-01-20T03:12:04.450Z,14.50
2019-01-20T03:14:33.829Z,13.32
2019-01-20T03:17:04.702Z,13.88
2019-01-20T03:19:34.124Z,13.45
2019-01-20T03:22:03.990Z,13.13
2019-01-20T03:24:33.340Z,13.62
2019-01-20T03:27:02.773Z,12.33
2019-01-20T03:29:32.165Z,13.90
2019-01-20T03:32:01.534Z,13.62
2019-01-20T03:34:30.906Z,13.70
2019-01-20T03:37:00.288Z,13.80
2019-01-20T03:39:29.672Z,14.03
2019-01-20T03:41:59.061Z,13.60
2019-01-20T03:44:28.476Z,12.80
2019-01-20T03:46:57.859Z,13.00
2019-01-20T03:49:27.257Z,13.28
2019-01-20T03:51:56.631Z,13.20
2019-01-20T03:54:26.002Z,13.15
2019-01-20T03:56:55.361Z,14.90
2019-01-20T03:59:24.804Z,12.95
2019-01-20T04:01:54.186Z,13.40
2019-01-20T04:04:23.555Z,13.20
2019-01-20T04:06:53.314Z,12.73
2019-01-20T04:09:22.675Z,12.75
2019-01-20T04:11:52.049Z,13.38
2019-01-20T04:14:21.439Z,13.20
2019-01-20T04:16:50.814Z,13.10
2019-01-20T04:19:20.736Z,12.43
2019-01-20T04:21:50.122Z,12.97
2019-01-20T04:24:19.486Z,13.43
2019-01-20T04:26:48.845Z,12.88
2019-01-20T04:29:18.978Z,13.10
2019-01-20T04:31:48.335Z,12.50
2019-01-20T04:34:17.708Z,13.47
2019-01-20T04:36:47.095Z,11.78
2019-01-20T04:39:16.482Z,12.53
2019-01-20T04:41:45.864Z,13.60
2019-01-20T04:44:15.293Z,12.33
2019-01-20T04:46:44.657Z,11.70
2019-01-20T04:49:14.026Z,13.70
2019-01-20T04:51:43.752Z,13.70
2019-01-20T04:54:13.682Z,13.60
2019-01-20T04:56:43.066Z,14.20
2019-01-20T04:59:12.443Z,12.50
2019-01-20T05:01:41.820Z,12.57
2019-01-20T05:04:11.177Z,12.60
2019-01-20T05:06:40.573Z,12.10
2019-01-20T05:09:09.951Z,13.03
2019-01-20T05:11:39.324Z,12.15
2019-01-20T05:14:09.391Z,11.90
2019-01-20T05:16:38.752Z,12.63
2019-01-20T05:19:09.744Z,11.90
2019-01-20T05:21:40.241Z,11.70
2019-01-20T05:24:09.602Z,10.90
2019-01-20T05:26:38.961Z,10.65
2019-01-20T05:29:08.354Z,10.48
2019-01-20T05:31:37.745Z,11.12
2019-01-20T05:34:07.098Z,10.88
2019-01-20T05:36:37.204Z,10.63
2019-01-20T05:39:08.095Z,10.27
2019-01-20T05:41:37.477Z,11.23
2019-01-20T05:44:06.848Z,10.78
2019-01-20T05:46:36.225Z,10.93
2019-01-20T05:49:05.648Z,11.15
2019-01-20T05:51:35.030Z,10.15
2019-01-20T05:54:04.482Z,11.20
2019-01-20T05:56:33.865Z,12.27
2019-01-20T05:59:03.267Z,12.20
2019-01-20T06:01:32.635Z,12.13
2019-01-20T06:04:02.001Z,11.65
2019-01-20T06:06:33.980Z,12.10
2019-01-20T06:09:02.528Z,11.97
2019-01-20T06:11:31.892Z,12.90
2019-01-20T06:14:01.277Z,12.28
2019-01-20T06:16:30.652Z,10.80
2019-01-20T06:19:00.067Z,12.75
2019-01-20T06:21:29.898Z,11.47
2019-01-20T06:24:02.845Z,11.50
2019-01-20T06:26:32.216Z,11.68
2019-01-20T06:29:01.594Z,11.33
2019-01-20T06:31:30.964Z,10.68
2019-01-20T06:34:00.336Z,12.10
2019-01-20T06:36:29.727Z,11.48
2019-01-20T06:38:59.178Z,11.73
2019-01-20T06:41:28.574Z,11.90
2019-01-20T06:43:58.318Z,12.03
2019-01-20T06:46:27.708Z,11.93
2019-01-20T06:48:57.134Z,11.60
2019-01-20T06:51:26.527Z,11.83
2019-01-20T06:53:55.894Z,12.13
2019-01-20T06:56:25.274Z,12.17
2019-01-20T06:58:54.677Z,11.75
2019-01-20T07:01:24.056Z,11.60
2019-01-20T07:03:53.426Z,11.90
2019-01-20T07:06:23.301Z,11.50
2019-01-20T07:08:52.737Z,12.33
2019-01-20T07:11:22.104Z,12.58
2019-01-20T07:13:51.496Z,12.30
2019-01-20T07:16:20.929Z,12.63
2019-01-20T07:18:50.280Z,12.57
2019-01-20T07:21:19.657Z,12.07
2019-01-20T07:23:49.013Z,12.35
2019-01-20T07:26:19.561Z,12.65
2019-01-20T07:28:49.269Z,11.80
2019-01-20T07:31:18.609Z,12.50
2019-01-20T07:33:47.968Z,12.50
2019-01-20T07:36:17.350Z,14.23
2019-01-20T07:38:46.710Z,14.13
2019-01-20T07:41:16.076Z,12.15
2019-01-20T07:43:45.454Z,12.90
2019-01-20T07:46:14.812Z,12.73
2019-01-20T07:48:44.172Z,12.58
2019-01-20T07:51:13.575Z,13.03
2019-01-20T07:53:42.927Z,12.43
2019-01-20T07:56:12.291Z,12.90
2019-01-20T07:58:41.663Z,11.73
2019-01-20T08:01:11.044Z,11.70
2019-01-20T08:03:40.418Z,12.18
2019-01-20T08:06:09.798Z,12.30
2019-01-20T08:08:39.181Z,11.50
2019-01-20T08:11:08.551Z,13.50
2019-01-20T08:13:37.930Z,13.17
2019-01-20T08:16:07.380Z,12.70
2019-01-20T08:18:36.753Z,13.38
2019-01-20T08:21:06.147Z,12.63
2019-01-20T08:23:35.478Z,12.60
2019-01-20T08:26:04.982Z,12.78
2019-01-20T08:28:34.969Z,12.75
2019-01-20T08:31:04.496Z,13.22
2019-01-20T08:33:33.880Z,13.53
2019-01-20T08:36:03.775Z,15.13
2019-01-20T08:38:34.994Z,15.43
2019-01-20T08:41:04.523Z,15.90
2019-01-20T08:43:33.924Z,14.30
2019-01-20T08:46:16.649Z,13.37
2019-01-20T08:48:46.037Z,12.93
2019-01-20T08:51:15.542Z,14.10
2019-01-20T08:53:44.899Z,13.47
2019-01-20T08:56:14.914Z,13.63
2019-01-20T08:58:44.282Z,14.70
2019-01-20T09:01:13.663Z,14.63
2019-01-20T09:03:43.046Z,13.80
2019-01-20T09:06:12.494Z,14.13
2019-01-20T09:08:42.008Z,13.83
2019-01-20T09:11:11.544Z,14.50
2019-01-20T09:13:41.285Z,12.83
2019-01-20T09:16:10.803Z,12.43
2019-01-20T09:18:40.199Z,12.47
2019-01-20T09:21:09.572Z,12.20
2019-01-20T09:23:38.996Z,11.33
2019-01-20T09:26:09.318Z,12.28
2019-01-20T09:28:38.685Z,11.88
2019-01-20T09:31:08.065Z,11.40
2019-01-20T09:33:37.553Z,11.80
2019-01-20T09:36:06.981Z,11.57
2019-01-20T09:38:36.383Z,11.50
2019-01-20T09:41:05.953Z,13.45
2019-01-20T09:43:35.339Z,17.32
2019-01-20T09:46:04.826Z,25.97
2019-01-20T09:48:34.167Z,31.77
2019-01-20T09:51:03.562Z,25.33
2019-01-20T09:53:32.913Z,20.52
2019-01-20T09:56:02.322Z,19.93
2019-01-20T09:58:31.668Z,18.40
2019-01-20T10:01:01.066Z,16.13
2019-01-20T10:03:30.557Z,14.45
2019-01-20T10:05:59.949Z,13.63
2019-01-20T10:08:29.325Z,12.60
2019-01-20T10:10:58.685Z,11.33
2019-01-20T10:13:28.118Z,11.40
2019-01-20T10:15:57.566Z,10.90
2019-01-20T10:18:26.954Z,9.75
2019-01-20T10:20:56.324Z,10.47
2019-01-20T10:23:25.705Z,10.20
2019-01-20T10:25:55.401Z,11.15
2019-01-20T10:28:24.840Z,9.93
2019-01-20T10:30:54.612Z,9.40
2019-01-20T10:33:23.991Z,9.37
2019-01-20T10:35:55.051Z,9.33
2019-01-20T10:38:24.395Z,9.53
2019-01-20T10:40:53.759Z,9.63
2019-01-20T10:43:23.123Z,9.30
2019-01-20T10:45:52.518Z,9.90
2019-01-20T10:48:22.244Z,9.83
2019-01-20T10:50:51.635Z,9.40
2019-01-20T10:53:20.990Z,9.50
2019-01-20T10:55:50.373Z,10.00
2019-01-20T10:58:19.745Z,9.77
2019-01-20T11:00:49.111Z,10.45
2019-01-20T11:03:18.534Z,10.30
2019-01-20T11:05:47.887Z,10.47
2019-01-20T11:08:17.463Z,11.00
2019-01-20T11:10:47.192Z,10.63
2019-01-20T11:13:16.556Z,10.33
2019-01-20T11:15:45.920Z,10.27
2019-01-20T11:18:15.298Z,11.77
2019-01-20T11:20:44.662Z,11.30
2019-01-20T11:23:14.192Z,12.03
2019-01-20T11:25:43.587Z,11.27
2019-01-20T11:28:12.964Z,10.80
2019-01-20T11:30:42.389Z,11.63
2019-01-20T11:33:12.221Z,15.97
2019-01-20T11:35:41.601Z,18.83
2019-01-20T11:38:10.962Z,23.23
2019-01-20T11:40:40.344Z,16.83
2019-01-20T11:43:09.730Z,15.00
2019-01-20T11:45:39.165Z,18.10
2019-01-20T11:48:08.679Z,17.63
2019-01-20T11:50:38.050Z,13.20
2019-01-20T11:53:07.547Z,13.30
2019-01-20T11:55:36.961Z,11.50
2019-01-20T11:58:06.401Z,11.67
2019-01-20T12:00:36.771Z,12.93
2019-01-20T12:03:06.481Z,12.80
2019-01-20T12:05:36.511Z,11.43
2019-01-20T12:08:06.484Z,12.07
2019-01-20T12:10:36.158Z,11.80
2019-01-20T12:13:07.221Z,11.97
2019-01-20T12:15:36.902Z,10.97
2019-01-20T12:18:06.762Z,10.63
2019-01-20T12:20:36.204Z,11.93
2019-01-20T12:23:06.093Z,11.73
2019-01-20T12:25:35.525Z,11.63
2019-01-20T12:28:05.132Z,12.97
2019-01-20T12:30:38.363Z,11.63
2019-01-20T12:33:08.360Z,11.87
2019-01-20T12:35:38.897Z,12.47
2019-01-20T12:38:08.261Z,12.68
2019-01-20T12:40:44.399Z,12.80
2019-01-20T12:43:13.925Z,11.70
2019-01-20T12:45:43.344Z,13.33
2019-01-20T12:48:13.138Z,11.77
2019-01-20T12:50:42.486Z,12.37
2019-01-20T12:53:11.930Z,12.23
2019-01-20T12:55:41.302Z,13.80
2019-01-20T12:58:11.276Z,14.13
2019-01-20T13:00:40.635Z,12.47
2019-01-20T13:03:10.054Z,12.43
2019-01-20T13:05:39.475Z,11.37
2019-01-20T13:08:08.793Z,11.70
2019-01-20T13:10:38.884Z,11.17
2019-01-20T13:13:08.251Z,10.77
2019-01-20T13:15:37.617Z,10.97
2019-01-20T13:18:07.054Z,11.53
2019-01-20T13:20:36.442Z,10.00
2019-01-20T13:23:06.259Z,10.40
2019-01-20T13:25:35.627Z,14.60
2019-01-20T13:28:05.075Z,15.63
2019-01-20T13:30:34.429Z,14.03
2019-01-20T13:33:03.913Z,17.80
2019-01-20T13:35:33.265Z,21.33
2019-01-20T13:38:07.388Z,16.97
2019-01-20T13:40:47.354Z,13.40
2019-01-20T13:43:16.825Z,10.80
2019-01-20T13:45:46.274Z,10.75
2019-01-20T13:48:15.671Z,11.07
2019-01-20T13:50:45.116Z,10.27
2019-01-20T13:53:14.486Z,9.43
2019-01-20T13:55:43.933Z,9.20
2019-01-20T13:58:13.319Z,9.40
2019-01-20T14:00:42.714Z,9.90
2019-01-20T14:03:12.342Z,10.20
2019-01-20T14:05:41.691Z,9.50
2019-01-20T14:08:11.041Z,9.03
2019-01-20T14:10:40.450Z,9.40
2019-01-20T14:13:09.813Z,9.60
2019-01-20T14:15:39.183Z,8.47
2019-01-20T14:18:08.552Z,8.40
2019-01-20T14:20:37.891Z,7.73
2019-01-20T14:23:07.594Z,9.17
2019-01-20T14:25:36.964Z,9.17
2019-01-20T14:28:06.318Z,8.93
2019-01-20T14:30:35.659Z,8.70
2019-01-20T14:33:05.062Z,11.30
2019-01-20T14:35:34.405Z,8.43
2019-01-20T14:38:03.825Z,7.93
2019-01-20T14:40:33.560Z,7.83
2019-01-20T14:43:03.177Z,7.77
2019-01-20T14:45:32.526Z,8.20
2019-01-20T14:48:01.905Z,7.77
2019-01-20T14:50:31.317Z,8.00
2019-01-20T14:53:00.671Z,8.33
2019-01-20T14:55:30.436Z,7.93
2019-01-20T14:57:59.773Z,8.07
2019-01-20T15:00:33.394Z,7.83
2019-01-20T15:03:02.914Z,8.10
2019-01-20T15:05:32.327Z,7.90
2019-01-20T15:08:01.883Z,8.40
2019-01-20T15:10:32.088Z,8.20
2019-01-20T15:13:01.625Z,9.20
2019-01-20T15:15:35.349Z,8.10
2019-01-20T15:18:06.135Z,8.40
2019-01-20T15:20:35.633Z,7.90
2019-01-20T15:23:05.353Z,8.70
2019-01-20T15:25:35.403Z,8.67
2019-01-20T15:28:05.286Z,8.97
2019-01-20T15:30:35.269Z,8.60
2019-01-20T15:33:06.774Z,8.57
2019-01-20T15:35:36.377Z,10.03
2019-01-20T15:38:06.594Z,11.93
2019-01-20T15:40:36.333Z,11.50
2019-01-20T15:43:06.575Z,10.13
2019-01-20T15:45:35.947Z,8.67
2019-01-20T15:48:05.730Z,10.37
2019-01-20T15:50:35.151Z,9.43
2019-01-20T15:53:04.868Z,10.07
2019-01-20T15:55:34.315Z,9.43
2019-01-20T15:58:03.750Z,13.20
2019-01-20T16:00:33.577Z,13.08
2019-01-20T16:03:03.424Z,10.73
2019-01-20T16:05:32.844Z,9.00
2019-01-20T16:08:02.179Z,9.80
2019-01-20T16:10:31.563Z,8.10
2019-01-20T16:13:00.909Z,9.00
2019-01-20T16:15:33.806Z,8.53
2019-01-20T16:18:03.267Z,9.27
2019-01-20T16:20:33.158Z,12.93
2019-01-20T16:23:02.503Z,7.83
2019-01-20T16:25:34.987Z,10.37
2019-01-20T16:28:04.788Z,9.77
2019-01-20T16:30:37.043Z,8.20
2019-01-20T16:33:06.888Z,8.83
2019-01-20T16:35:36.335Z,8.33
2019-01-20T16:38:06.025Z,8.80
2019-01-20T16:40:35.395Z,8.27
2019-01-20T16:43:05.331Z,7.33
2019-01-20T16:45:41.966Z,7.37
2019-01-20T16:48:10.837Z,8.50
2019-01-20T16:50:40.341Z,7.00
2019-01-20T16:53:09.771Z,6.93
2019-01-20T16:55:39.130Z,7.60
2019-01-20T16:58:08.494Z,7.47
2019-01-20T17:00:40.756Z,8.60
2019-01-20T17:03:10.262Z,7.40
2019-01-20T17:05:39.686Z,7.87
2019-01-20T17:08:09.237Z,7.20
2019-01-20T17:10:40.917Z,7.83
2019-01-20T17:13:10.812Z,7.27
2019-01-20T17:15:42.237Z,6.47
2019-01-20T17:18:12.930Z,7.17
2019-01-20T17:20:42.477Z,7.27
2019-01-20T17:23:11.952Z,6.97
2019-01-20T17:25:41.262Z,6.50
2019-01-20T17:28:10.627Z,7.10
2019-01-20T17:30:40.595Z,7.20
2019-01-20T17:33:11.594Z,7.25
2019-01-20T17:35:40.969Z,6.77
2019-01-20T17:38:10.636Z,6.40
2019-01-20T17:40:40.035Z,6.57
2019-01-20T17:43:09.429Z,6.77
2019-01-20T17:45:47.599Z,8.63
2019-01-20T17:48:13.433Z,8.40
2019-01-20T17:50:43.336Z,8.53
2019-01-20T17:53:12.925Z,7.93
2019-01-20T17:55:42.312Z,7.50
2019-01-20T17:58:11.730Z,7.53
2019-01-20T18:00:42.796Z,7.20
2019-01-20T18:03:12.318Z,6.90
2019-01-20T18:05:41.990Z,6.97
2019-01-20T18:08:11.436Z,7.27
2019-01-20T18:10:40.844Z,7.07
2019-01-20T18:13:10.438Z,7.30
2019-01-20T18:15:39.861Z,7.37
2019-01-20T18:18:09.424Z,7.70
2019-01-20T18:20:38.792Z,6.67
2019-01-20T18:23:08.134Z,7.37
2019-01-20T18:25:37.642Z,7.40
2019-01-20T18:28:07.139Z,7.43
2019-01-20T18:30:36.599Z,7.57
2019-01-20T18:33:05.959Z,7.43
2019-01-20T18:35:35.400Z,7.47
2019-01-20T18:38:04.989Z,7.60
2019-01-20T18:40:34.376Z,7.60
2019-01-20T18:43:03.867Z,8.20
2019-01-20T18:45:34.734Z,7.40
2019-01-20T18:48:04.220Z,7.90
2019-01-20T18:50:38.657Z,9.20
2019-01-20T18:53:08.102Z,8.87
2019-01-20T18:55:37.663Z,9.20
2019-01-20T18:58:07.379Z,9.33
2019-01-20T19:00:41.339Z,8.47
2019-01-20T19:03:10.779Z,8.67
2019-01-20T19:05:40.281Z,8.30
2019-01-20T19:08:09.644Z,8.13
2019-01-20T19:10:39.781Z,9.70
2019-01-20T19:13:09.173Z,8.50
2019-01-20T19:15:38.534Z,8.07
2019-01-20T19:18:07.917Z,8.10
2019-01-20T19:20:37.317Z,7.47
2019-01-20T19:23:06.857Z,7.47
2019-01-20T19:25:36.337Z,8.40
2019-01-20T19:28:06.165Z,8.33
2019-01-20T19:30:36.470Z,9.10
2019-01-20T19:33:06.494Z,8.43
2019-01-20T19:35:35.865Z,9.33
2019-01-20T19:38:05.521Z,8.83
2019-01-20T19:40:34.942Z,8.38
2019-01-20T19:43:04.386Z,9.30
2019-01-20T19:45:33.821Z,8.90
2019-01-20T19:48:03.275Z,8.98
2019-01-20T19:50:32.711Z,9.30
2019-01-20T19:53:02.436Z,8.63
2019-01-20T19:55:33.471Z,8.70
2019-01-20T19:58:02.976Z,9.13
2019-01-20T20:00:33.298Z,8.73
2019-01-20T20:03:02.688Z,8.15
2019-01-20T20:05:32.258Z,8.30
2019-01-20T20:08:01.700Z,8.40
2019-01-20T20:10:31.146Z,9.27
2019-01-20T20:13:00.604Z,10.58
2019-01-20T20:15:30.124Z,9.93
2019-01-20T20:17:59.555Z,10.15
2019-01-20T20:20:28.981Z,9.43
2019-01-20T20:22:58.454Z,8.73
2019-01-20T20:25:28.017Z,9.63
2019-01-20T20:27:57.526Z,10.18
2019-01-20T20:30:30.438Z,9.60
2019-01-20T20:33:00.202Z,10.27
2019-01-20T20:35:29.567Z,10.33
2019-01-20T20:37:58.978Z,10.45
2019-01-20T20:40:28.364Z,10.25
2019-01-20T20:42:58.189Z,10.67
2019-01-20T20:45:28.201Z,9.63
2019-01-20T20:47:57.640Z,9.05
2019-01-20T20:50:27.026Z,10.07
2019-01-20T20:52:56.392Z,10.40
2019-01-20T20:55:26.777Z,10.00
2019-01-20T20:57:56.117Z,10.58
2019-01-20T21:00:35.847Z,11.97
2019-01-20T21:03:09.630Z,12.18
2019-01-20T21:05:39.076Z,11.53
2019-01-20T21:08:08.534Z,10.10
2019-01-20T21:10:37.895Z,10.57
2019-01-20T21:13:07.448Z,10.72
2019-01-20T21:15:36.814Z,9.87
2019-01-20T21:18:06.185Z,9.95
2019-01-20T21:20:35.560Z,10.97
2019-01-20T21:23:11.806Z,10.40
2019-01-20T21:25:36.047Z,10.80
2019-01-20T21:28:05.564Z,10.48
2019-01-20T21:30:34.930Z,9.53
2019-01-20T21:33:04.372Z,10.53
2019-01-20T21:35:33.746Z,9.80
2019-01-20T21:38:06.844Z,10.68
2019-01-20T21:40:34.400Z,9.55
2019-01-20T21:43:03.757Z,9.78
2019-01-20T21:45:33.220Z,10.13
2019-01-20T21:48:02.600Z,10.80
2019-01-20T21:50:32.471Z,10.30
2019-01-20T21:53:01.857Z,9.65
2019-01-20T21:55:31.221Z,12.18
2019-01-20T21:58:01.993Z,10.93
2019-01-20T22:00:31.657Z,10.95
2019-01-20T22:03:01.035Z,11.90
2019-01-20T22:05:30.397Z,11.07
2019-01-20T22:07:59.796Z,11.88
2019-01-20T22:10:29.222Z,11.95
2019-01-20T22:12:58.579Z,11.83
2019-01-20T22:15:27.969Z,12.63
2019-01-20T22:17:57.300Z,11.15
2019-01-20T22:20:26.676Z,11.50
2019-01-20T22:22:56.138Z,11.63
2019-01-20T22:25:25.494Z,11.80
2019-01-20T22:27:54.864Z,12.98
2019-01-20T22:30:26.161Z,12.73
2019-01-20T22:32:55.599Z,11.73
2019-01-20T22:35:24.981Z,12.67
2019-01-20T22:37:54.376Z,12.18
2019-01-20T22:40:23.740Z,10.40
2019-01-20T22:42:53.188Z,10.77
2019-01-20T22:45:25.561Z,11.33
2019-01-20T22:47:54.924Z,11.25
2019-01-20T22:50:24.586Z,12.46
2019-01-20T22:52:53.960Z,12.15
2019-01-20T22:55:23.343Z,12.28
2019-01-20T22:57:52.706Z,12.37
2019-01-20T23:00:46.377Z,13.13
2019-01-20T23:03:15.886Z,12.90
2019-01-20T23:05:45.381Z,13.32
2019-01-20T23:08:14.797Z,11.48
2019-01-20T23:10:44.125Z,11.15
2019-01-20T23:13:13.568Z,11.95
2019-01-20T23:15:42.913Z,11.50
2019-01-20T23:18:12.358Z,12.37
2019-01-20T23:20:41.720Z,11.60
2019-01-20T23:23:11.449Z,12.63
2019-01-20T23:25:40.814Z,12.88
2019-01-20T23:28:10.249Z,12.58
2019-01-20T23:30:39.723Z,12.93
2019-01-20T23:33:09.081Z,11.93
2019-01-20T23:35:38.466Z,11.93
2019-01-20T23:38:07.837Z,13.48
2019-01-20T23:40:37.193Z,13.00
2019-01-20T23:43:06.584Z,13.83
2019-01-20T23:45:36.534Z,15.93
2019-01-20T23:48:06.027Z,17.62
2019-01-20T23:50:35.386Z,16.07
2019-01-20T23:53:05.031Z,17.35
2019-01-20T23:55:35.445Z,15.90
2019-01-20T23:58:05.664Z,21.55
